Latest  Newer  Older  Last 2 hours animation  Current image  Latest image  Summary per 24h (testing)  Summary per 7d (testing) 
Cloud coverage sat images  Infrared sat images 
Real-time lightning map

All time is UTC (add 2 hours in wintertime, 3 hours in DST for Latvia local time)

2018/11/15 08:20 EVRA 150820Z 00000KT 9999 SCT029 SCT035 06/06 Q1032 R36/290195 NOSIG
2018/11/15 08:20 EVLA 150820Z AUTO 12002KT 9999 FEW003/// OVC034/// 07/07 Q1032
2018/11/15 08:20 EVVA 150820Z AUTO 19003KT 9999 OVC028 07/07 Q1031
2018/11/15 08:28 EYKA 150828Z 35004KT 320V030 9000 FEW004 OVC021 07/07 Q1032 R08/190095
2018/11/15 08:20 EYPA 150820Z 17003KT 9999 OVC035 08/07 Q1032 R19/1///95
2018/11/15 08:20 EYSA 150820Z 02004KT 340V050 6000 OVC002 06/06 Q1032 R14L/29//95 AMB NOSIG
2018/11/15 08:20 EYVI 150820Z 04006KT 9999 SCT006 BKN039 06/05 Q1031 R01/2///95 NOSIG
2018/11/15 07:50 EEKA 150750Z 17005KT 9999 OVC027 08/06 Q1029
2018/11/15 07:50 EEKE 150750Z 20007KT 9999 OVC026 08/06 Q1030
2018/11/15 07:50 EEPU 150750Z 16003KT 120V190 9999 OVC023 07/07 Q1030
2018/11/15 08:20 EETN 150820Z 21006KT 9999 OVC020 07/05 Q1030 R08/290195 NOSIG
2018/11/15 07:50 EETU 150750Z 00000KT 9999 OVC025 06/05 Q1031
   RIGA AIRPORT     EVRA               56 55N  023 58E   10   X     T          6 LV
   LIEPAJA INTL     EVLA        26406  56 31N  021 06E    4   X                8 LV
   VENTPILS         EVVA               57 21N  021 33E    6   X                8 LV
   KAUNAS           EYKA               54 54N  023 55E   77   X     T          6 LT
   PALANGA INTL     EYPA               55 55N  021 03E   10   X                6 LT
   SIAULIAI INTL    EYSA               55 54N  023 24E  135   X     T          6 LT
   VILNIUS INTL     EYVI        26730  54 38N  025 17E  197   X     T          6 LT
   KARDLA           EEKA        26116  58 59N  022 50E    4   X                8 EE
   KURESSAARE       EEKE               58 14N  022 31E    4   X                8 EE
   PARNU            EEPU               58 25N  024 28E   14   X                8 EE
   TALLINN          EETN        26038  59 24N  024 49E   40   X     T          8 EE
   TARTU            EETU               58 19N  026 41E   67   X                8 EE

rain/snow radar image from www.meteo.lv and METAR data from weather.noaa.gov